Airfield :
LOGIN :

Register | Disclaimer

   EN    FR    IT 

 










Legend :    VFR   Marginal VFR   IFR   Intensive IFR   Very Intensive IFR
Visi :
Ceiling :
>= 8 km
>= 3000ft
5 to 8 km
1000 to 3000 ft
1500m to 5 km
500 to 1000 ft
800 to 1500m
200 to 500 ft
< 800m
< 200 ft
Symbols :   Thunderstorms  Fog  Heavy snow  Heavy precipitations  Wind > 20 kt
SIGMETs :     Misc.  Thunderstorms  Icing  Turbulence  Mountain Waves  Volcanic Ashes






- Airport Elevation : 32 ft
- IATA code : LKZ


EGUL - RAF Lakenheath

CURRENT METAR :
  • 071256Z AUTO 23012KT 9999 CLR 10/06 A2986 RMK AO2 SLP115 T01000062 $

EXPIRED METARs :
  • 071156Z AUTO 24011KT 9999 OVC040 10/06 A2988 RMK AO2 SLP122 70017 T00970057 10097 20075 $
  • 071056Z AUTO 24010KT 9999 OVC044 09/06 A2989 RMK AO2 SLP125 T00910060 $

TAF TAF EGUL
Valid from the 06 at 13:00 until the 07 at 19:00 UTC


061300Z 0613/0719 22015G25KT 9999 BKN020 QNH2949INS
TEMPO 0613/0617 BKN015
BECMG 0617/0618 27015G20KT 9000 -SHRA BKN010 QNH2961INS
BECMG 0621/0622 27015G20KT 9999 NSW BKN020 QNH2971INS
BECMG 0705/0706 25010G20KT 9999 SCT020 BKN040 QNH2985INS TX13/0613Z TN07/0706Z LAST NO AMDS AFT 0613 NEXT 0906



MET'MAP, your aeronautical weather chart ! - Copyright ORBIFLY December 2007 - Disclaimer

ORBIFLY MET'MAP TEAM :

Programming & Development : Alexandra Zaïnal
Concept & original design : Baudouin d'Aumeries
Assistance for programming : Marc-Olivier Méhu
Technical & hardware support : Manuel Goepfert

Contact : metmap@orbifly.com




SOURCES & CREDITS :

   NOAA